createdAt,value
2016-02-28T00:00:08.660Z,4
2016-02-28T00:01:08.692Z,4.04
2016-02-28T00:02:08.663Z,4.03
2016-02-28T00:03:08.666Z,3.99
2016-02-28T00:04:08.669Z,4.02
2016-02-28T00:05:08.671Z,4.06
2016-02-28T00:06:08.674Z,3.95
2016-02-28T00:07:08.677Z,3.95
2016-02-28T00:08:08.679Z,3.99
2016-02-28T00:09:08.682Z,3.94
2016-02-28T00:10:08.669Z,3.89
2016-02-28T00:11:08.656Z,3.88
2016-02-28T00:12:08.660Z,3.89
2016-02-28T00:13:08.662Z,3.96
2016-02-28T00:14:08.665Z,4
2016-02-28T00:15:08.667Z,3.99
2016-02-28T00:16:08.670Z,4.06
2016-02-28T00:17:08.673Z,4.02
2016-02-28T00:18:08.659Z,4.06
2016-02-28T00:19:08.651Z,4.07
2016-02-28T00:20:08.655Z,4.04
2016-02-28T00:21:08.673Z,4.07
2016-02-28T00:22:08.660Z,4.06
2016-02-28T00:23:08.662Z,3.91
2016-02-28T00:24:08.665Z,3.86
2016-02-28T00:25:08.654Z,3.89
2016-02-28T00:26:08.671Z,3.85
2016-02-28T00:27:08.659Z,3.76
2016-02-28T00:28:08.661Z,3.86
2016-02-28T00:29:08.664Z,3.89
2016-02-28T00:30:08.760Z,3.78
2016-02-28T00:31:08.497Z,3.76
2016-02-28T00:32:08.656Z,3.77
2016-02-28T00:33:08.675Z,3.76
2016-02-28T00:34:08.662Z,3.85
2016-02-28T00:35:08.680Z,3.7
2016-02-28T00:36:08.667Z,3.77
2016-02-28T00:37:08.655Z,3.77
2016-02-28T00:38:08.657Z,3.78
2016-02-28T00:39:08.660Z,3.81
2016-02-28T00:40:08.663Z,3.66
2016-02-28T00:41:08.665Z,3.77
2016-02-28T00:42:08.668Z,3.81
2016-02-28T00:43:08.670Z,3.73
2016-02-28T00:44:08.673Z,3.76
2016-02-28T00:45:08.660Z,3.78
2016-02-28T00:46:08.663Z,3.77
2016-02-28T00:47:08.650Z,3.76
2016-02-28T00:48:08.652Z,3.82
2016-02-28T00:49:08.654Z,3.73
2016-02-28T00:50:08.657Z,3.78
2016-02-28T00:51:08.676Z,3.71
2016-02-28T00:52:08.663Z,3.73
2016-02-28T00:53:08.666Z,3.76
2016-02-28T00:54:08.653Z,3.76
2016-02-28T00:55:08.656Z,3.76
2016-02-28T00:56:08.658Z,3.78
2016-02-28T00:57:08.708Z,3.73
2016-02-28T00:58:08.664Z,3.73
2016-02-28T00:59:08.651Z,3.76
2016-02-28T01:00:08.669Z,3.76
2016-02-28T01:01:08.656Z,3.81
2016-02-28T01:02:08.675Z,3.77
2016-02-28T01:03:08.646Z,3.74
2016-02-28T01:04:08.648Z,3.78
2016-02-28T01:05:08.667Z,3.78
2016-02-28T01:06:08.654Z,3.81
2016-02-28T01:07:08.656Z,3.88
2016-02-28T01:08:08.659Z,3.84
2016-02-28T01:09:08.661Z,3.85
2016-02-28T01:10:08.649Z,3.78
2016-02-28T01:11:08.667Z,3.82
2016-02-28T01:12:08.655Z,3.78
2016-02-28T01:13:08.642Z,3.74
2016-02-28T01:14:08.660Z,3.76
2016-02-28T01:15:08.663Z,3.74
2016-02-28T01:16:08.680Z,3.71
2016-02-28T01:17:08.668Z,3.77
2016-02-28T01:18:08.655Z,3.94
2016-02-28T01:19:08.674Z,3.76
2016-02-28T01:20:08.660Z,3.81
2016-02-28T01:21:08.648Z,3.78
2016-02-28T01:22:08.650Z,3.73
2016-02-28T01:23:08.653Z,3.7
2016-02-28T01:24:08.656Z,3.84
2016-02-28T01:25:08.721Z,3.77
2016-02-28T01:26:08.645Z,3.73
2016-02-28T01:27:08.648Z,3.86
2016-02-28T01:28:08.650Z,3.73
2016-02-28T01:29:08.685Z,3.71
2016-02-28T01:30:08.640Z,3.78
2016-02-28T01:31:08.659Z,3.73
2016-02-28T01:32:08.646Z,3.73
2016-02-28T01:33:08.648Z,3.77
2016-02-28T01:34:08.651Z,3.74
2016-02-28T01:35:08.653Z,3.73
2016-02-28T01:36:08.656Z,3.88
2016-02-28T01:37:08.644Z,3.86
2016-02-28T01:38:08.647Z,3.88
2016-02-28T01:39:08.649Z,3.94
2016-02-28T01:40:08.652Z,3.95
2016-02-28T01:41:08.655Z,3.85
2016-02-28T01:42:08.657Z,3.84
2016-02-28T01:43:08.675Z,3.94
2016-02-28T01:44:08.647Z,3.85
2016-02-28T01:45:08.649Z,3.81
2016-02-28T01:46:08.636Z,3.94
2016-02-28T01:47:08.639Z,3.88
2016-02-28T01:48:08.641Z,3.82
2016-02-28T01:49:08.644Z,3.92
2016-02-28T01:50:08.647Z,3.92
2016-02-28T01:51:08.635Z,4
2016-02-28T01:52:08.652Z,3.95
2016-02-28T01:53:08.671Z,4
2016-02-28T01:54:08.643Z,4
2016-02-28T01:55:08.693Z,3.95
2016-02-28T01:56:08.648Z,3.95
2016-02-28T01:57:08.666Z,3.94
2016-02-28T01:58:08.653Z,4.03
2016-02-28T01:59:08.640Z,4.02
2016-02-28T02:00:08.643Z,3.95
2016-02-28T02:01:08.645Z,3.99
2016-02-28T02:02:08.633Z,4.03
2016-02-28T02:03:08.636Z,4.03
2016-02-28T02:04:08.654Z,4.1
2016-02-28T02:05:08.641Z,4.14
2016-02-28T02:06:08.644Z,4.04
2016-02-28T02:07:08.646Z,4.07
2016-02-28T02:08:08.633Z,4.18
2016-02-28T02:09:08.636Z,4.18
2016-02-28T02:10:08.639Z,4.12
2016-02-28T02:11:08.641Z,4.1
2016-02-28T02:12:08.644Z,4.16
2016-02-28T02:13:08.647Z,4.16
2016-02-28T02:14:08.633Z,4.24
2016-02-28T02:15:08.636Z,4.18
2016-02-28T02:16:08.624Z,4.2
2016-02-28T02:17:08.642Z,4.28
2016-02-28T02:18:08.644Z,4.27
2016-02-28T02:19:08.647Z,4.25
2016-02-28T02:20:08.635Z,4.24
2016-02-28T02:21:08.638Z,4.27
2016-02-28T02:22:08.640Z,4.22
2016-02-28T02:23:08.643Z,4.16
2016-02-28T02:24:08.645Z,4.14
2016-02-28T02:25:08.632Z,4.14
2016-02-28T02:26:08.635Z,4.25
2016-02-28T02:27:08.637Z,4.32
2016-02-28T02:28:08.656Z,4.38
2016-02-28T02:29:08.627Z,4.4
2016-02-28T02:30:08.630Z,4.45
2016-02-28T02:31:08.632Z,4.45
2016-02-28T02:32:08.635Z,4.43
2016-02-28T02:33:08.637Z,4.34
2016-02-28T02:34:08.625Z,4.32
2016-02-28T02:35:08.643Z,4.22
2016-02-28T02:36:08.646Z,4.27
2016-02-28T02:37:08.648Z,4.24
2016-02-28T02:38:08.636Z,4.24
2016-02-28T02:39:08.638Z,4.2
2016-02-28T02:40:08.672Z,4.1
2016-02-28T02:41:08.628Z,4.04
2016-02-28T02:42:08.631Z,4.1
2016-02-28T02:43:08.634Z,4.14
2016-02-28T02:44:08.652Z,4.1
2016-02-28T02:45:08.624Z,4.06
2016-02-28T02:46:08.626Z,4.06
2016-02-28T02:47:08.629Z,4.03
2016-02-28T02:48:08.632Z,3.99
2016-02-28T02:49:08.634Z,3.85
2016-02-28T02:50:08.637Z,3.89
2016-02-28T02:51:08.655Z,3.95
2016-02-28T02:52:08.673Z,3.96
2016-02-28T02:53:08.645Z,3.99
2016-02-28T02:54:08.632Z,3.99
2016-02-28T02:55:08.635Z,4.02
2016-02-28T02:56:08.637Z,4.02
2016-02-28T02:57:08.640Z,3.96
2016-02-28T02:58:08.643Z,3.99
2016-02-28T02:59:08.661Z,3.91
2016-02-28T03:00:08.632Z,3.81
2016-02-28T03:01:08.620Z,3.74
2016-02-28T03:02:08.637Z,3.81
2016-02-28T03:03:08.640Z,3.76
2016-02-28T03:04:08.628Z,3.71
2016-02-28T03:05:08.630Z,3.7
2016-02-28T03:06:08.633Z,3.84
2016-02-28T03:07:08.651Z,3.77
2016-02-28T03:08:08.639Z,3.78
2016-02-28T03:09:08.642Z,3.78
2016-02-28T03:10:08.628Z,3.78
2016-02-28T03:11:08.631Z,3.74
2016-02-28T03:12:08.633Z,3.74
2016-02-28T03:13:08.620Z,3.74
2016-02-28T03:14:08.623Z,3.81
2016-02-28T03:15:08.625Z,3.85
2016-02-28T03:16:08.629Z,3.89
2016-02-28T03:17:08.631Z,3.77
2016-02-28T03:18:08.634Z,3.91
2016-02-28T03:19:08.636Z,3.86
2016-02-28T03:20:08.639Z,3.89
2016-02-28T03:21:08.627Z,3.89
2016-02-28T03:22:08.629Z,3.91
2016-02-28T03:23:08.632Z,3.89
2016-02-28T03:24:08.650Z,3.88
2016-02-28T03:25:08.637Z,3.94
2016-02-28T03:26:08.624Z,4
2016-02-28T03:27:08.627Z,4.06
2016-02-28T03:28:08.615Z,4.13
2016-02-28T03:29:08.617Z,4.22
2016-02-28T03:30:08.620Z,4.39
2016-02-28T03:31:08.637Z,4.48
2016-02-28T03:32:08.625Z,4.61
2016-02-28T03:33:08.628Z,4.67
2016-02-28T03:34:08.630Z,4.71
2016-02-28T03:35:08.633Z,4.75
2016-02-28T03:36:08.620Z,4.68
2016-02-28T03:37:08.684Z,4.7
2016-02-28T03:38:08.625Z,4.7
2016-02-28T03:39:08.628Z,4.64
2016-02-28T03:40:08.614Z,4.56
2016-02-28T03:41:08.617Z,4.45
2016-02-28T03:42:08.620Z,4.43
2016-02-28T03:43:08.655Z,4.48
2016-02-28T03:44:08.625Z,4.49
2016-02-28T03:45:08.629Z,4.48
2016-02-28T03:46:08.630Z,4.48
2016-02-28T03:47:08.619Z,4.52
2016-02-28T03:48:08.622Z,4.48
2016-02-28T03:49:08.608Z,4.36
2016-02-28T03:50:08.627Z,4.38
2016-02-28T03:51:08.630Z,4.42
2016-02-28T03:52:08.663Z,4.42
2016-02-28T03:53:08.635Z,4.39
2016-02-28T03:54:08.638Z,4.4
2016-02-28T03:55:08.608Z,4.36
2016-02-28T03:56:08.611Z,4.32
2016-02-28T03:57:08.613Z,4.21
2016-02-28T03:58:08.616Z,4.22
2016-02-28T03:59:08.618Z,4.13
2016-02-28T04:00:08.637Z,4.14
2016-02-28T04:01:08.624Z,4.1
2016-02-28T04:02:08.612Z,4.06
2016-02-28T04:03:08.645Z,3.96
2016-02-28T04:04:08.623Z,4.04
2016-02-28T04:05:08.640Z,4.04
2016-02-28T04:06:08.612Z,4
2016-02-28T04:07:08.615Z,4.02
2016-02-28T04:08:08.634Z,3.99
2016-02-28T04:09:08.619Z,4.06
2016-02-28T04:10:08.622Z,4.04
2016-02-28T04:11:08.625Z,4.07
2016-02-28T04:12:08.644Z,4.03
2016-02-28T04:13:08.615Z,4
2016-02-28T04:14:08.618Z,4.09
2016-02-28T04:15:08.620Z,4.12
2016-02-28T04:16:08.623Z,4.16
2016-02-28T04:17:08.626Z,4.25
2016-02-28T04:18:08.613Z,4.22
2016-02-28T04:19:08.615Z,4.28
2016-02-28T04:20:08.619Z,4.28
2016-02-28T04:21:08.621Z,4.22
2016-02-28T04:22:08.624Z,4.16
2016-02-28T04:23:08.627Z,4.21
2016-02-28T04:24:08.629Z,4.25
2016-02-28T04:25:08.616Z,4.34
2016-02-28T04:26:08.618Z,4.4
2016-02-28T04:27:08.621Z,4.36
2016-02-28T04:28:08.624Z,4.28
2016-02-28T04:29:08.612Z,4.32
2016-02-28T04:30:08.629Z,4.25
2016-02-28T04:31:08.617Z,4.14
2016-02-28T04:32:08.604Z,4.24
2016-02-28T04:33:08.606Z,4.18
2016-02-28T04:34:08.609Z,4.07
2016-02-28T04:35:08.612Z,4.2
2016-02-28T04:36:08.614Z,4.18
2016-02-28T04:37:08.617Z,4.1
2016-02-28T04:38:08.620Z,4.14
2016-02-28T04:39:08.638Z,4.07
2016-02-28T04:40:08.625Z,4.1
2016-02-28T04:41:08.675Z,4.09
2016-02-28T04:42:08.615Z,4.1
2016-02-28T04:43:08.617Z,4.06
2016-02-28T04:44:08.605Z,4.14
2016-02-28T04:45:08.623Z,4.12
2016-02-28T04:46:08.610Z,4.21
2016-02-28T04:47:08.613Z,4.22
2016-02-28T04:48:08.616Z,4.22
2016-02-28T04:49:08.602Z,4.2
2016-02-28T04:50:08.621Z,4.16
2016-02-28T04:51:08.608Z,4.02
2016-02-28T04:52:08.626Z,4.18
2016-02-28T04:53:08.597Z,4.1
2016-02-28T04:54:08.600Z,3.99
2016-02-28T04:55:08.619Z,3.95
2016-02-28T04:56:08.605Z,3.95
2016-02-28T04:57:08.608Z,3.95
2016-02-28T04:58:08.611Z,3.95
2016-02-28T04:59:08.613Z,3.92
2016-02-28T05:00:08.616Z,3.96
2016-02-28T05:01:08.618Z,3.95
2016-02-28T05:02:08.607Z,4
2016-02-28T05:03:08.609Z,3.94
2016-02-28T05:04:08.440Z,3.91
2016-02-28T05:05:08.599Z,3.88
2016-02-28T05:06:08.601Z,3.78
2016-02-28T05:07:08.620Z,3.77
2016-02-28T05:08:08.607Z,3.73
2016-02-28T05:09:08.609Z,3.66
2016-02-28T05:10:08.597Z,3.74
2016-02-28T05:11:08.600Z,3.71
2016-02-28T05:12:08.603Z,3.74
2016-02-28T05:13:08.605Z,3.74
2016-02-28T05:14:08.591Z,3.88
2016-02-28T05:15:08.595Z,3.86
2016-02-28T05:16:08.613Z,3.77
2016-02-28T05:17:08.600Z,3.86
2016-02-28T05:18:08.602Z,3.78
2016-02-28T05:19:08.605Z,3.82
2016-02-28T05:20:08.608Z,3.89
2016-02-28T05:21:08.611Z,3.89
2016-02-28T05:22:08.597Z,3.89
2016-02-28T05:23:08.616Z,3.86
2016-02-28T05:24:08.603Z,3.89
2016-02-28T05:25:08.590Z,3.91
2016-02-28T05:26:08.593Z,3.88
2016-02-28T05:27:08.595Z,3.96
2016-02-28T05:28:08.599Z,4
2016-02-28T05:29:08.601Z,3.95
2016-02-28T05:30:08.619Z,4
2016-02-28T05:31:08.590Z,4.09
2016-02-28T05:32:08.593Z,4.12
2016-02-28T05:33:08.596Z,4.14
2016-02-28T05:34:08.614Z,4.14
2016-02-28T05:35:08.601Z,4.07
2016-02-28T05:36:08.604Z,4.13
2016-02-28T05:37:08.591Z,4.07
2016-02-28T05:38:08.593Z,4.1
2016-02-28T05:39:08.581Z,4.1
2016-02-28T05:40:08.599Z,4.06
2016-02-28T05:41:08.602Z,4.1
2016-02-28T05:42:08.604Z,4.14
2016-02-28T05:43:08.592Z,4.18
2016-02-28T05:44:08.594Z,4.12
2016-02-28T05:45:08.597Z,4.12
2016-02-28T05:46:08.584Z,4.14
2016-02-28T05:47:08.586Z,4.24
2016-02-28T05:48:08.589Z,4.12
2016-02-28T05:49:08.592Z,4.1
2016-02-28T05:50:08.595Z,4.04
2016-02-28T05:51:08.597Z,3.94
2016-02-28T05:52:08.585Z,4.03
2016-02-28T05:53:08.588Z,3.89
2016-02-28T05:54:08.574Z,3.88
2016-02-28T05:55:08.593Z,3.81
2016-02-28T05:56:08.596Z,3.77
2016-02-28T05:57:08.598Z,3.91
2016-02-28T05:58:08.585Z,3.92
2016-02-28T05:59:08.604Z,3.78
2016-02-28T06:00:08.607Z,3.84
2016-02-28T06:01:08.593Z,3.95
2016-02-28T06:02:08.596Z,3.86
2016-02-28T06:03:08.582Z,3.96
2016-02-28T06:04:08.585Z,3.94
2016-02-28T06:05:08.588Z,4
2016-02-28T06:06:08.590Z,3.96
2016-02-28T06:07:08.593Z,3.92
2016-02-28T06:08:08.581Z,3.88
2016-02-28T06:09:08.584Z,3.89
2016-02-28T06:10:08.586Z,3.81
2016-02-28T06:11:08.589Z,3.76
2016-02-28T06:12:08.592Z,3.78
2016-02-28T06:13:08.594Z,3.78
2016-02-28T06:14:08.581Z,3.92
2016-02-28T06:15:08.583Z,3.94
2016-02-28T06:16:08.587Z,4.02
2016-02-28T06:17:08.573Z,4.03
2016-02-28T06:18:08.592Z,3.88
2016-02-28T06:19:08.595Z,3.85
2016-02-28T06:20:08.628Z,3.81
2016-02-28T06:21:08.584Z,3.78
2016-02-28T06:22:08.586Z,3.63
2016-02-28T06:23:08.589Z,3.64
2016-02-28T06:24:08.577Z,3.63
2016-02-28T06:25:08.594Z,3.53
2016-02-28T06:26:08.582Z,3.59
2016-02-28T06:27:08.585Z,3.37
2016-02-28T06:28:08.572Z,3.55
2016-02-28T06:29:08.574Z,3.41
2016-02-28T06:30:08.593Z,3.37
2016-02-28T06:31:08.596Z,3.37
2016-02-28T06:32:08.583Z,3.37
2016-02-28T06:33:08.585Z,3.27
2016-02-28T06:34:08.588Z,3.36
2016-02-28T06:35:08.576Z,3.36
2016-02-28T06:36:08.563Z,3.34
2016-02-28T06:37:08.581Z,3.3
2016-02-28T06:38:08.584Z,3.27
2016-02-28T06:39:08.586Z,3.36
2016-02-28T06:40:08.604Z,3.36
2016-02-28T06:41:08.576Z,3.3
2016-02-28T06:42:08.594Z,3.34
2016-02-28T06:43:08.565Z,3.3
2016-02-28T06:44:08.568Z,3.27
2016-02-28T06:45:08.571Z,3.36
2016-02-28T06:46:08.573Z,3.31
2016-02-28T06:47:08.576Z,3.27
2016-02-28T06:48:08.563Z,3.29
2016-02-28T06:49:08.581Z,3.41
2016-02-28T06:50:08.553Z,3.31
2016-02-28T06:51:08.571Z,3.43
2016-02-28T06:52:08.575Z,3.45
2016-02-28T06:53:08.436Z,3.55
2016-02-28T06:54:08.564Z,3.55
2016-02-28T06:55:08.582Z,3.5
2016-02-28T06:56:08.569Z,3.55
2016-02-28T06:57:08.572Z,3.56
2016-02-28T06:58:08.575Z,3.61
2016-02-28T06:59:08.640Z,3.63
2016-02-28T07:00:08.564Z,3.61
2016-02-28T07:01:08.583Z,3.58
2016-02-28T07:02:08.570Z,3.61
2016-02-28T07:03:08.557Z,3.7
2016-02-28T07:04:08.560Z,3.63
2016-02-28T07:05:08.563Z,3.73
2016-02-28T07:06:08.565Z,3.74
2016-02-28T07:07:08.583Z,3.82
2016-02-28T07:08:08.570Z,3.77
2016-02-28T07:09:08.620Z,3.86
2016-02-28T07:10:08.576Z,4.03
2016-02-28T07:11:08.578Z,4.07
2016-02-28T07:12:08.565Z,4.04
2016-02-28T07:13:08.553Z,4.1
2016-02-28T07:14:08.571Z,4.12
2016-02-28T07:15:08.558Z,4.09
2016-02-28T07:16:08.575Z,4.14
2016-02-28T07:17:08.563Z,4.21
2016-02-28T07:18:08.597Z,4.21
2016-02-28T07:19:08.568Z,4.18
2016-02-28T07:20:08.586Z,4.16
2016-02-28T07:21:08.449Z,4.06
2016-02-28T07:22:08.561Z,4.06
2016-02-28T07:23:08.564Z,4.06
2016-02-28T07:24:08.566Z,4.03
2016-02-28T07:25:08.585Z,4.02
2016-02-28T07:26:08.572Z,3.96
2016-02-28T07:27:08.559Z,3.92
2016-02-28T07:28:08.561Z,3.95
2016-02-28T07:29:08.408Z,3.96
2016-02-28T07:30:08.551Z,3.96
2016-02-28T07:31:08.554Z,4.12
2016-02-28T07:32:08.572Z,4.13
2016-02-28T07:33:08.559Z,4.22
2016-02-28T07:34:08.562Z,4.21
2016-02-28T07:35:08.565Z,4.36
2016-02-28T07:36:08.583Z,4.34
2016-02-28T07:37:08.570Z,4.57
2016-02-28T07:38:08.573Z,4.53
2016-02-28T07:39:08.576Z,4.67
2016-02-28T07:40:08.578Z,4.67
2016-02-28T07:41:08.565Z,4.74
2016-02-28T07:42:08.583Z,4.76
2016-02-28T07:43:08.555Z,4.92
2016-02-28T07:44:08.590Z,4.94
2016-02-28T07:45:08.560Z,4.89
2016-02-28T07:46:08.562Z,4.94
2016-02-28T07:47:08.566Z,4.89
2016-02-28T07:48:08.559Z,4.92
2016-02-28T07:49:08.549Z,4.95
2016-02-28T07:50:08.525Z,5.04
2016-02-28T07:51:08.516Z,5.15
2016-02-28T07:52:08.506Z,5.22
2016-02-28T07:53:08.503Z,5.25
2016-02-28T07:54:08.501Z,5.31
2016-02-28T07:55:08.485Z,5.44
2016-02-28T07:56:08.483Z,5.37
2016-02-28T07:57:08.466Z,5.36
2016-02-28T07:58:08.498Z,5.52
2016-02-28T07:59:08.530Z,5.56
2016-02-28T08:00:08.470Z,5.51
2016-02-28T08:01:08.471Z,5.58
2016-02-28T08:02:08.456Z,5.76
2016-02-28T08:03:08.474Z,5.81
2016-02-28T08:04:08.476Z,5.91
2016-02-28T08:05:08.524Z,6.13
2016-02-28T08:06:08.480Z,6.26
2016-02-28T08:07:08.482Z,6.39
2016-02-28T08:08:08.470Z,6.41
2016-02-28T08:09:08.472Z,6.41
2016-02-28T08:10:08.474Z,6.53
2016-02-28T08:11:08.476Z,6.54
2016-02-28T08:12:08.479Z,6.49
2016-02-28T08:13:08.528Z,6.59
2016-02-28T08:14:08.465Z,6.6
2016-02-28T08:15:08.468Z,6.62
2016-02-28T08:16:08.471Z,6.6
2016-02-28T08:17:08.473Z,6.77
2016-02-28T08:18:08.476Z,6.95
2016-02-28T08:19:08.478Z,7.05
2016-02-28T08:20:08.481Z,7.21
2016-02-28T08:21:08.483Z,7.36
2016-02-28T08:22:08.503Z,7.48
2016-02-28T08:23:08.490Z,7.67
2016-02-28T08:24:08.477Z,7.78
2016-02-28T08:25:08.464Z,7.8
2016-02-28T08:26:08.482Z,7.72
2016-02-28T08:27:08.469Z,7.59
2016-02-28T08:28:08.471Z,7.55
2016-02-28T08:29:08.475Z,7.56
2016-02-28T08:30:08.477Z,7.67
2016-02-28T08:31:08.496Z,7.67
2016-02-28T08:32:08.482Z,7.87
2016-02-28T08:33:08.501Z,7.84
2016-02-28T08:34:08.471Z,8.02
2016-02-28T08:35:08.491Z,8.06
2016-02-28T08:36:08.478Z,8.32
2016-02-28T08:37:08.480Z,8.45
2016-02-28T08:38:08.515Z,8.79
2016-02-28T08:39:08.485Z,8.95
2016-02-28T08:40:08.332Z,9.33
2016-02-28T08:41:08.490Z,9.73
2016-02-28T08:42:08.478Z,10.23
2016-02-28T08:43:08.481Z,10.61
2016-02-28T08:44:08.499Z,10.75
2016-02-28T08:45:08.501Z,10.79
2016-02-28T08:46:08.489Z,11.07
2016-02-28T08:47:08.491Z,11.19
2016-02-28T08:48:08.479Z,11.3
2016-02-28T08:49:08.482Z,11.25
2016-02-28T08:50:08.500Z,11.25
2016-02-28T08:51:08.503Z,11.18
2016-02-28T08:52:08.489Z,11.1
2016-02-28T08:53:08.492Z,11.19
2016-02-28T08:54:08.494Z,11.33
2016-02-28T08:55:08.497Z,11.19
2016-02-28T08:56:08.500Z,11.31
2016-02-28T08:57:08.503Z,11.2
2016-02-28T08:58:08.506Z,11.23
2016-02-28T08:59:08.508Z,11.16
2016-02-28T09:00:08.511Z,11.04
2016-02-28T09:01:08.513Z,11.07
2016-02-28T09:02:08.503Z,11.04
2016-02-28T09:03:08.505Z,11.01
2016-02-28T09:04:08.509Z,11.01
2016-02-28T09:05:08.531Z,11.12
2016-02-28T09:06:08.534Z,11.05
2016-02-28T09:07:08.521Z,10.98
2016-02-28T09:08:08.555Z,11.08
2016-02-28T09:09:08.511Z,11.12
2016-02-28T09:10:08.513Z,11.02
2016-02-28T09:11:08.531Z,11.05
2016-02-28T09:12:08.503Z,11.04
2016-02-28T09:13:08.522Z,11.04
2016-02-28T09:14:08.524Z,11.02
2016-02-28T09:15:08.527Z,10.89
2016-02-28T09:16:08.530Z,10.87
2016-02-28T09:17:08.516Z,10.71
2016-02-28T09:18:08.535Z,10.51
2016-02-28T09:19:08.538Z,10.48
2016-02-28T09:20:08.525Z,10.49
2016-02-28T09:21:08.543Z,10.27
2016-02-28T09:22:08.530Z,10.28
2016-02-28T09:23:08.580Z,10.24
2016-02-28T09:24:08.535Z,10.06
2016-02-28T09:25:08.538Z,9.91
2016-02-28T09:26:08.556Z,9.64
2016-02-28T09:27:08.560Z,9.51
2016-02-28T09:28:08.546Z,9.52
2016-02-28T09:29:08.549Z,9.52
2016-02-28T09:30:08.552Z,9.58
2016-02-28T09:31:08.554Z,9.52
2016-02-28T09:32:08.557Z,9.64
2016-02-28T09:33:08.559Z,9.67
2016-02-28T09:34:08.563Z,9.64
2016-02-28T09:35:08.565Z,9.76
2016-02-28T09:36:08.578Z,9.8
2016-02-28T09:37:08.395Z,9.85
2016-02-28T09:38:08.783Z,9.72
2016-02-28T09:39:09.188Z,9.76
2016-02-28T09:40:08.583Z,9.77
2016-02-28T09:41:08.554Z,9.87
2016-02-28T09:42:08.557Z,9.91
2016-02-28T09:43:08.747Z,9.85
2016-02-28T09:44:08.562Z,9.77
2016-02-28T09:45:08.565Z,9.72
2016-02-28T09:46:08.583Z,9.81
2016-02-28T09:47:08.570Z,9.67
2016-02-28T09:48:08.614Z,9.77
2016-02-28T09:49:08.586Z,9.8
2016-02-28T09:50:08.573Z,9.82
2016-02-28T09:51:08.575Z,9.88
2016-02-28T09:52:08.578Z,9.77
2016-02-28T09:53:08.643Z,9.62
2016-02-28T09:54:08.583Z,9.33
2016-02-28T09:55:08.586Z,8.96
2016-02-28T09:56:08.588Z,8.75
2016-02-28T09:57:08.575Z,8.56
2016-02-28T09:58:08.625Z,8.38
2016-02-28T09:59:08.580Z,8.23
2016-02-28T10:00:08.584Z,8.06
2016-02-28T10:01:08.586Z,7.88
2016-02-28T10:02:08.611Z,7.67
2016-02-28T10:03:08.597Z,7.58
2016-02-28T10:04:08.600Z,7.44
2016-02-28T10:05:08.619Z,7.47
2016-02-28T10:06:08.293Z,7.56
2016-02-28T10:07:08.615Z,7.53
2016-02-28T10:08:08.601Z,7.64
2016-02-28T10:09:08.604Z,7.64
2016-02-28T10:10:08.686Z,7.7
2016-02-28T10:11:08.610Z,7.85
2016-02-28T10:12:08.613Z,7.85
2016-02-28T10:13:08.615Z,8.01
2016-02-28T10:14:08.618Z,7.98
2016-02-28T10:15:08.606Z,8.11
2016-02-28T10:16:08.608Z,8.21
2016-02-28T10:17:08.626Z,8.21
2016-02-28T10:18:08.613Z,8.39
2016-02-28T10:19:08.616Z,8.34
2016-02-28T10:20:08.619Z,8.45
2016-02-28T10:21:08.637Z,8.49
2016-02-28T10:22:08.672Z,8.5
2016-02-28T10:23:08.705Z,8.54
2016-02-28T10:24:08.630Z,8.6
2016-02-28T10:25:08.632Z,8.6
2016-02-28T10:26:08.635Z,8.71
2016-02-28T10:27:08.652Z,8.57
2016-02-28T10:28:08.655Z,8.46
2016-02-28T10:29:08.643Z,8.34
2016-02-28T10:30:08.646Z,8.24
2016-02-28T10:31:08.633Z,8.08
2016-02-28T10:32:08.635Z,8.09
2016-02-28T10:33:08.638Z,8.03
2016-02-28T10:34:08.657Z,7.98
2016-02-28T10:35:08.659Z,7.85
2016-02-28T10:36:08.646Z,7.69
2016-02-28T10:37:08.648Z,7.56
2016-02-28T10:38:08.651Z,7.62
2016-02-28T10:39:08.654Z,7.58
2016-02-28T10:40:08.657Z,7.75
2016-02-28T10:41:08.691Z,7.72
2016-02-28T10:42:08.663Z,7.88
2016-02-28T10:43:08.665Z,7.78
2016-02-28T10:44:08.684Z,7.85
2016-02-28T10:45:08.670Z,7.83
2016-02-28T10:46:08.689Z,7.8
2016-02-28T10:47:08.675Z,7.8
2016-02-28T10:48:08.678Z,7.75
2016-02-28T10:49:08.681Z,7.84
2016-02-28T10:50:08.669Z,7.81
2016-02-28T10:51:08.672Z,7.77
2016-02-28T10:52:08.689Z,7.7
2016-02-28T10:53:08.677Z,7.59
2016-02-28T10:54:08.679Z,7.55
2016-02-28T10:55:08.682Z,7.81
2016-02-28T10:56:08.684Z,7.84
2016-02-28T10:57:08.688Z,8.01
2016-02-28T10:58:08.705Z,8.11
2016-02-28T10:59:08.693Z,8.24
2016-02-28T11:00:08.695Z,8.34
2016-02-28T11:01:08.713Z,8.52
2016-02-28T11:02:08.701Z,8.72
2016-02-28T11:03:08.704Z,8.71
2016-02-28T11:04:08.707Z,8.77
2016-02-28T11:05:08.552Z,8.77
2016-02-28T11:06:08.712Z,8.71
2016-02-28T11:07:08.714Z,8.63
2016-02-28T11:08:08.701Z,8.71
2016-02-28T11:09:08.704Z,8.78
2016-02-28T11:10:08.723Z,8.74
2016-02-28T11:11:08.725Z,8.75
2016-02-28T11:12:08.728Z,8.71
2016-02-28T11:13:08.715Z,9.02
2016-02-28T11:14:08.717Z,8.9
2016-02-28T11:15:08.751Z,9.08
2016-02-28T11:16:08.722Z,9.12
2016-02-28T11:17:08.741Z,9.16
2016-02-28T11:18:08.728Z,9.26
2016-02-28T11:19:08.762Z,9.27
2016-02-28T11:20:08.733Z,9.33
2016-02-28T11:21:08.736Z,9.31
2016-02-28T11:22:08.738Z,9.29
2016-02-28T11:23:08.742Z,9.36
2016-02-28T11:24:08.745Z,9.39
2016-02-28T11:25:08.747Z,9.37
2016-02-28T11:26:08.750Z,9.47
2016-02-28T11:27:08.752Z,9.34
2016-02-28T11:28:08.755Z,9.27
2016-02-28T11:29:08.741Z,9.18
2016-02-28T11:30:08.761Z,8.97
2016-02-28T11:31:08.747Z,8.87
2016-02-28T11:32:08.766Z,8.63
2016-02-28T11:33:08.752Z,8.53
2016-02-28T11:34:08.771Z,8.44
2016-02-28T11:35:08.805Z,8.41
2016-02-28T11:36:08.792Z,8.41
2016-02-28T11:37:08.763Z,8.44
2016-02-28T11:38:08.798Z,8.42
2016-02-28T11:39:08.785Z,8.53
2016-02-28T11:40:08.771Z,8.53
2016-02-28T11:41:08.774Z,8.64
2016-02-28T11:42:08.776Z,8.72
2016-02-28T11:43:08.623Z,8.86
2016-02-28T11:44:08.782Z,8.86
2016-02-28T11:45:08.817Z,8.93
2016-02-28T11:46:08.788Z,8.97
2016-02-28T11:47:08.806Z,9.13
2016-02-28T11:48:08.792Z,9.18
2016-02-28T11:49:08.811Z,9.31
2016-02-28T11:50:08.798Z,9.31
2016-02-28T11:51:08.817Z,9.47
2016-02-28T11:52:08.803Z,9.59
2016-02-28T11:53:08.806Z,9.58
2016-02-28T11:54:08.809Z,9.69
2016-02-28T11:55:08.797Z,9.7
2016-02-28T11:56:08.814Z,9.63
2016-02-28T11:57:08.802Z,9.58
2016-02-28T11:58:08.805Z,9.56
2016-02-28T11:59:08.822Z,9.69
2016-02-28T12:00:08.825Z,9.8
2016-02-28T12:01:08.844Z,9.7
2016-02-28T12:02:08.830Z,9.7
2016-02-28T12:03:08.833Z,9.74
2016-02-28T12:04:08.821Z,9.94
2016-02-28T12:05:08.838Z,10.13
2016-02-28T12:06:08.826Z,10.58
2016-02-28T12:07:08.844Z,10.68
2016-02-28T12:08:08.832Z,10.94
2016-02-28T12:09:08.849Z,11.05
2016-02-28T12:10:08.837Z,11.2
2016-02-28T12:11:08.854Z,11.19
2016-02-28T12:12:08.858Z,11.33
2016-02-28T12:13:08.845Z,11.44
2016-02-28T12:14:08.863Z,11.49
2016-02-28T12:15:08.850Z,11.49
2016-02-28T12:16:08.853Z,11.62
2016-02-28T12:17:08.856Z,11.48
2016-02-28T12:18:08.717Z,11.33
2016-02-28T12:19:08.861Z,11.05
2016-02-28T12:20:08.879Z,10.77
2016-02-28T12:21:08.866Z,10.55
2016-02-28T12:22:08.884Z,10.28
2016-02-28T12:23:08.872Z,10.07
2016-02-28T12:24:08.890Z,9.87
2016-02-28T12:25:08.878Z,9.76
2016-02-28T12:26:08.880Z,9.59
2016-02-28T12:27:08.898Z,9.44
2016-02-28T12:28:08.900Z,9.36
2016-02-28T12:29:08.888Z,9.54
2016-02-28T12:30:08.922Z,9.59
2016-02-28T12:31:08.909Z,9.67
2016-02-28T12:32:08.896Z,9.58
2016-02-28T12:33:08.899Z,9.55
2016-02-28T12:34:08.885Z,9.52
2016-02-28T12:35:08.888Z,9.39
2016-02-28T12:36:08.922Z,9.13
2016-02-28T12:37:08.910Z,9.03
2016-02-28T12:38:08.912Z,9.02
2016-02-28T12:39:08.930Z,8.86
2016-02-28T12:40:08.933Z,8.72
2016-02-28T12:41:08.967Z,8.79
2016-02-28T12:42:08.923Z,8.72
2016-02-28T12:43:08.926Z,8.89
2016-02-28T12:44:09.006Z,8.82
2016-02-28T12:45:08.931Z,8.84
2016-02-28T12:46:08.933Z,8.87
2016-02-28T12:47:08.936Z,8.87
2016-02-28T12:48:08.954Z,9.03
2016-02-28T12:49:08.942Z,9.16
2016-02-28T12:50:08.945Z,9.36
2016-02-28T12:51:08.947Z,9.58
2016-02-28T12:52:08.950Z,9.66
2016-02-28T12:53:08.984Z,9.62
2016-02-28T12:54:08.971Z,9.56
2016-02-28T12:55:08.958Z,9.58
2016-02-28T12:56:08.960Z,9.54
2016-02-28T12:57:08.963Z,9.69
2016-02-28T12:58:08.966Z,9.72
2016-02-28T12:59:08.984Z,9.82
2016-02-28T13:00:08.972Z,9.74
2016-02-28T13:01:08.974Z,9.9
2016-02-28T13:02:08.977Z,9.88
2016-02-28T13:03:08.979Z,9.77
2016-02-28T13:04:08.997Z,9.8
2016-02-28T13:05:08.828Z,9.66
2016-02-28T13:06:08.991Z,9.69
2016-02-28T13:07:08.993Z,9.67
2016-02-28T13:08:09.000Z,9.64
2016-02-28T13:09:09.002Z,9.8
2016-02-28T13:10:08.990Z,9.88
2016-02-28T13:11:08.993Z,10.02
2016-02-28T13:12:09.011Z,10.3
2016-02-28T13:13:09.013Z,10.45
2016-02-28T13:14:09.001Z,10.67
2016-02-28T13:15:09.003Z,10.83
2016-02-28T13:16:09.006Z,10.9
2016-02-28T13:17:09.010Z,10.97
2016-02-28T13:18:08.856Z,10.95
2016-02-28T13:19:09.014Z,10.98